Windsor, CA

8:09 PM PST on November 28, 2014 (GMT -0800)
Sonoma County | Change Station
CLOSE
Current Station
Airport
Location: Santa Rosa,
Elevation: 125 ft
Nearby Weather Stations

Elev 125 ft 38.50 °N, 122.81 °W | Updated 16 minutes ago

Rain
Rain
55 °F
Feels Like 55 °F
N
0
Wind Variable Wind from North

Today
High -- | Low -- °F
--% Chance of Precip.
Yesterday
High -- | Low -- °F
Precip. -- in
7:06 AM 4:51 PM
Waxing Crescent, 47% visible
Pressure 29.83 in
Visibility 4.0 miles
Clouds Overcast 1300 ft
Dew Point 55 °F
Humidity 100%
Rainfall 0.14 in
Snow Depth Not available.
UV 0 out of 12
Pollen 2.30 out of 12
Air Quality Not available.
Flu Activity Not available.
METAR KSTS 290353Z 00000KT 4SM -RA BR OVC013 13/13 A2985 RMK AO2 SLP102 P0004 T01280128

More Conditions Fewer Conditions

Pressure 29.83 in
Visibility 4.0 miles
Clouds Overcast 1300 ft
Dew Point 55 °F
Humidity 100%
Rainfall 0.14 in
Snow Depth Not available.
UV 0 out of 12
Pollen 2.30 out of 12
Air Quality Not available.
Flu Activity Not available.
METAR KSTS 290353Z 00000KT 4SM -RA BR OVC013 13/13 A2985 RMK AO2 SLP102 P0004 T01280128

More Conditions Fewer Conditions

10-Day Weather Forecast

Almanac

Astronomy

Nov. 28, 2014 Rise Set
Actual Time
Civil Twilight
Nautical Twilight
Astronomical Twilight
Moon
Length of Visible Light
Length of Day
Tomorrow will be .
, % of the Moon is Illuminated

Today's Extremes

State Highs State Lows

Community

WunderPhotos

Upload Photos

1,774,396 photos uploaded!

WunderBlogs® & News

Nearby

Air Quality

  Air Quality AQ Index Pollutant
Not available.

Snow Depth

Station Depth Elevation

Earthquake Activity

City Distance Mag. Time & Date
Minimum magnitude displayed is 2.5.

Coastal Water Temperatures

Place Temperature

Nearby Weather Stations